createdAt,value
2018-10-16T00:00:36.537Z,10.80
2018-10-16T00:03:04.077Z,11.17
2018-10-16T00:05:31.477Z,10.03
2018-10-16T00:07:58.955Z,9.97
2018-10-16T00:10:32.116Z,8.90
2018-10-16T00:12:59.584Z,10.90
2018-10-16T00:15:26.993Z,10.03
2018-10-16T00:17:54.459Z,9.90
2018-10-16T00:20:22.028Z,9.93
2018-10-16T00:22:49.512Z,10.17
2018-10-16T00:25:17.557Z,10.10
2018-10-16T00:27:45.106Z,10.60
2018-10-16T00:30:12.601Z,9.40
2018-10-16T00:32:40.879Z,10.27
2018-10-16T00:35:08.460Z,9.40
2018-10-16T00:37:36.062Z,9.30
2018-10-16T00:40:03.589Z,9.90
2018-10-16T00:42:31.017Z,9.60
2018-10-16T00:44:58.445Z,9.60
2018-10-16T00:47:25.812Z,9.67
2018-10-16T00:49:53.352Z,11.00
2018-10-16T00:52:20.796Z,11.10
2018-10-16T00:54:48.304Z,10.50
2018-10-16T00:57:15.783Z,9.87
2018-10-16T00:59:43.233Z,9.87
2018-10-16T01:02:10.671Z,9.77
2018-10-16T01:04:38.110Z,9.80
2018-10-16T01:07:05.631Z,10.53
2018-10-16T01:09:33.149Z,10.23
2018-10-16T01:12:00.622Z,9.77
2018-10-16T01:14:28.198Z,10.30
2018-10-16T01:16:55.631Z,10.20
2018-10-16T01:19:23.017Z,11.33
2018-10-16T01:21:50.584Z,10.17
2018-10-16T01:24:18.091Z,10.27
2018-10-16T01:26:45.540Z,11.10
2018-10-16T01:29:12.982Z,10.90
2018-10-16T01:31:40.418Z,10.27
2018-10-16T01:34:07.882Z,10.80
2018-10-16T01:36:35.299Z,10.93
2018-10-16T01:39:03.109Z,11.10
2018-10-16T01:41:30.521Z,10.90
2018-10-16T01:43:57.968Z,11.57
2018-10-16T01:46:25.422Z,10.17
2018-10-16T01:48:52.848Z,10.83
2018-10-16T01:51:20.329Z,10.80
2018-10-16T01:53:47.794Z,10.67
2018-10-16T01:56:15.228Z,11.73
2018-10-16T01:58:42.588Z,11.60
2018-10-16T02:01:10.067Z,12.43
2018-10-16T02:03:37.566Z,11.10
2018-10-16T02:06:05.038Z,10.80
2018-10-16T02:08:32.463Z,9.90
2018-10-16T02:11:00.001Z,10.30
2018-10-16T02:13:27.423Z,9.73
2018-10-16T02:15:54.849Z,11.10
2018-10-16T02:18:22.319Z,10.63
2018-10-16T02:20:49.738Z,11.30
2018-10-16T02:23:17.242Z,10.50
2018-10-16T02:25:44.713Z,11.70
2018-10-16T02:28:12.149Z,11.40
2018-10-16T02:30:39.603Z,10.93
2018-10-16T02:33:07.131Z,11.17
2018-10-16T02:35:34.526Z,10.63
2018-10-16T02:38:01.994Z,10.20
2018-10-16T02:40:29.488Z,10.27
2018-10-16T02:42:56.903Z,10.77
2018-10-16T02:45:24.286Z,10.40
2018-10-16T02:47:51.699Z,10.70
2018-10-16T02:50:19.301Z,11.00
2018-10-16T02:52:46.755Z,10.67
2018-10-16T02:55:14.130Z,9.97
2018-10-16T02:57:41.554Z,11.37
2018-10-16T03:00:09.029Z,10.87
2018-10-16T03:02:36.455Z,10.63
2018-10-16T03:05:04.389Z,11.53
2018-10-16T03:07:31.811Z,11.57
2018-10-16T03:09:59.279Z,11.70
2018-10-16T03:12:26.778Z,11.20
2018-10-16T03:14:54.308Z,11.60
2018-10-16T03:17:21.808Z,11.60
2018-10-16T03:19:49.219Z,11.20
2018-10-16T03:22:16.624Z,12.67
2018-10-16T03:24:44.138Z,11.00
2018-10-16T03:27:11.553Z,10.07
2018-10-16T03:29:38.997Z,11.80
2018-10-16T03:32:06.485Z,11.50
2018-10-16T03:34:33.908Z,11.77
2018-10-16T03:37:01.402Z,12.10
2018-10-16T03:39:28.909Z,11.43
2018-10-16T03:41:56.468Z,11.13
2018-10-16T03:44:23.883Z,12.37
2018-10-16T03:46:51.318Z,11.50
2018-10-16T03:49:18.751Z,11.70
2018-10-16T03:51:46.189Z,12.67
2018-10-16T03:54:13.747Z,10.87
2018-10-16T03:56:41.260Z,11.83
2018-10-16T03:59:08.711Z,11.87
2018-10-16T04:01:36.137Z,11.53
2018-10-16T04:04:03.605Z,11.10
2018-10-16T04:06:31.046Z,11.80
2018-10-16T04:08:58.428Z,11.17
2018-10-16T04:11:25.844Z,10.57
2018-10-16T04:13:53.332Z,11.23
2018-10-16T04:16:20.790Z,10.43
2018-10-16T04:18:48.327Z,11.00
2018-10-16T04:21:15.806Z,11.37
2018-10-16T04:23:43.509Z,12.53
2018-10-16T04:26:11.569Z,9.90
2018-10-16T04:28:39.075Z,11.83
2018-10-16T04:31:07.561Z,10.07
2018-10-16T04:33:34.980Z,11.17
2018-10-16T04:36:02.427Z,11.47
2018-10-16T04:38:29.929Z,16.17
2018-10-16T04:40:57.322Z,19.20
2018-10-16T04:43:24.813Z,18.90
2018-10-16T04:45:52.293Z,17.00
2018-10-16T04:48:19.805Z,13.80
2018-10-16T04:50:47.209Z,14.70
2018-10-16T04:53:14.711Z,14.17
2018-10-16T04:55:42.223Z,12.83
2018-10-16T04:58:09.692Z,11.70
2018-10-16T05:00:37.203Z,13.40
2018-10-16T05:03:05.209Z,11.13
2018-10-16T05:05:32.689Z,12.47
2018-10-16T05:08:00.181Z,12.77
2018-10-16T05:10:27.608Z,12.30
2018-10-16T05:12:55.109Z,12.80
2018-10-16T05:15:32.922Z,13.23
2018-10-16T05:18:00.685Z,12.63
2018-10-16T05:20:28.201Z,14.53
2018-10-16T05:22:56.526Z,13.80
2018-10-16T05:25:24.824Z,14.50
2018-10-16T05:27:52.232Z,14.40
2018-10-16T05:30:19.693Z,13.40
2018-10-16T05:32:47.081Z,13.80
2018-10-16T05:35:14.582Z,14.57
2018-10-16T05:37:42.057Z,14.70
2018-10-16T05:40:10.200Z,13.80
2018-10-16T05:42:38.308Z,14.33
2018-10-16T05:45:07.186Z,14.40
2018-10-16T05:47:34.739Z,14.13
2018-10-16T05:50:02.264Z,13.93
2018-10-16T05:52:29.687Z,13.93
2018-10-16T05:54:57.233Z,14.73
2018-10-16T05:57:24.840Z,14.80
2018-10-16T05:59:55.767Z,16.90
2018-10-16T06:02:23.208Z,16.27
2018-10-16T06:04:50.696Z,16.10
2018-10-16T06:07:18.161Z,14.63
2018-10-16T06:09:45.693Z,15.17
2018-10-16T06:12:13.280Z,13.60
2018-10-16T06:14:40.789Z,14.60
2018-10-16T06:17:08.247Z,13.40
2018-10-16T06:19:35.845Z,12.17
2018-10-16T06:22:03.374Z,12.30
2018-10-16T06:24:30.873Z,13.67
2018-10-16T06:26:58.252Z,13.87
2018-10-16T06:29:25.730Z,14.50
2018-10-16T06:31:53.213Z,13.90
2018-10-16T06:34:20.783Z,13.37
2018-10-16T06:36:48.439Z,12.43
2018-10-16T06:39:15.867Z,11.90
2018-10-16T06:41:43.479Z,12.87
2018-10-16T06:44:10.851Z,11.40
2018-10-16T06:46:39.359Z,12.60
2018-10-16T06:49:06.799Z,11.13
2018-10-16T06:51:34.317Z,12.20
2018-10-16T06:54:01.698Z,11.10
2018-10-16T06:56:29.185Z,11.00
2018-10-16T06:58:56.680Z,13.13
2018-10-16T07:01:24.147Z,12.07
2018-10-16T07:03:51.588Z,13.67
2018-10-16T07:06:19.043Z,12.07
2018-10-16T07:08:46.603Z,13.63
2018-10-16T07:11:14.034Z,12.50
2018-10-16T07:13:41.498Z,12.73
2018-10-16T07:16:08.953Z,13.93
2018-10-16T07:18:36.446Z,14.47
2018-10-16T07:21:03.911Z,13.60
2018-10-16T07:23:31.496Z,14.70
2018-10-16T07:25:58.853Z,13.63
2018-10-16T07:28:26.368Z,14.97
2018-10-16T07:30:53.812Z,14.50
2018-10-16T07:33:21.323Z,15.20
2018-10-16T07:35:48.729Z,14.30
2018-10-16T07:38:16.348Z,15.10
2018-10-16T07:40:43.675Z,14.37
2018-10-16T07:43:11.148Z,15.37
2018-10-16T07:45:38.632Z,17.10
2018-10-16T07:48:06.081Z,17.13
2018-10-16T07:50:33.569Z,15.80
2018-10-16T07:53:01.152Z,16.40
2018-10-16T07:55:28.573Z,16.30
2018-10-16T07:57:55.957Z,16.10
2018-10-16T08:00:23.545Z,15.43
2018-10-16T08:02:51.078Z,15.17
2018-10-16T08:05:18.524Z,16.10
2018-10-16T08:07:46.023Z,16.40
2018-10-16T08:10:13.828Z,17.40
2018-10-16T08:12:41.831Z,17.90
2018-10-16T08:15:09.994Z,15.57
2018-10-16T08:17:37.562Z,16.10
2018-10-16T08:20:05.232Z,16.70
2018-10-16T08:22:32.656Z,17.20
2018-10-16T08:25:00.069Z,15.77
2018-10-16T08:27:27.493Z,17.30
2018-10-16T08:29:54.909Z,17.90
2018-10-16T08:32:22.519Z,17.97
2018-10-16T08:34:49.883Z,18.70
2018-10-16T08:37:26.913Z,17.30
2018-10-16T08:39:57.197Z,20.10
2018-10-16T08:43:37.973Z,23.40
2018-10-16T08:46:17.039Z,24.07
2018-10-16T08:48:55.996Z,19.60
2018-10-16T08:51:36.958Z,18.40
2018-10-16T08:54:04.741Z,17.83
2018-10-16T08:56:32.268Z,16.57
2018-10-16T08:59:00.015Z,17.20
2018-10-16T09:01:27.521Z,16.70
2018-10-16T09:03:55.048Z,16.00
2018-10-16T09:06:22.531Z,16.87
2018-10-16T09:08:49.977Z,16.10
2018-10-16T09:11:17.444Z,17.40
2018-10-16T09:13:44.997Z,17.30
2018-10-16T09:16:12.454Z,16.47
2018-10-16T09:18:39.975Z,16.27
2018-10-16T09:21:07.505Z,15.73
2018-10-16T09:23:35.103Z,17.07
2018-10-16T09:26:02.620Z,19.77
2018-10-16T09:28:30.091Z,16.93
2018-10-16T09:30:57.609Z,15.60
2018-10-16T09:33:25.023Z,15.83
2018-10-16T09:35:52.499Z,15.20
2018-10-16T09:38:19.936Z,16.50
2018-10-16T09:40:47.411Z,17.77
2018-10-16T09:43:14.904Z,17.17
2018-10-16T09:45:42.425Z,18.10
2018-10-16T09:48:09.904Z,17.10
2018-10-16T09:50:37.361Z,16.40
2018-10-16T09:53:05.329Z,15.90
2018-10-16T09:55:32.857Z,15.50
2018-10-16T09:58:00.259Z,17.13
2018-10-16T10:00:33.312Z,17.80
2018-10-16T10:03:00.772Z,16.67
2018-10-16T10:05:28.343Z,18.43
2018-10-16T10:07:55.822Z,17.80
2018-10-16T10:10:23.357Z,19.57
2018-10-16T10:12:50.804Z,17.70
2018-10-16T10:15:18.305Z,17.87
2018-10-16T10:17:45.711Z,18.37
2018-10-16T10:20:13.240Z,18.30
2018-10-16T10:22:40.683Z,17.33
2018-10-16T10:25:08.141Z,19.37
2018-10-16T10:27:35.541Z,19.57
2018-10-16T10:30:03.680Z,19.17
2018-10-16T10:32:31.590Z,19.17
2018-10-16T10:34:59.209Z,17.63
2018-10-16T10:37:26.633Z,18.33
2018-10-16T10:39:54.110Z,17.30
2018-10-16T10:42:21.758Z,19.00
2018-10-16T10:44:49.401Z,18.10
2018-10-16T10:47:16.867Z,17.60
2018-10-16T10:49:44.293Z,17.60
2018-10-16T10:52:11.750Z,16.13
2018-10-16T10:54:39.191Z,16.27
2018-10-16T10:57:07.361Z,16.67
2018-10-16T10:59:34.702Z,14.73
2018-10-16T11:02:02.976Z,15.40
2018-10-16T11:04:30.493Z,16.30
2018-10-16T11:06:57.986Z,15.30
2018-10-16T11:09:25.355Z,14.90
2018-10-16T11:11:53.665Z,15.50
2018-10-16T11:14:21.170Z,15.27
2018-10-16T11:16:48.646Z,15.70
2018-10-16T11:19:16.121Z,15.83
2018-10-16T11:21:43.615Z,16.30
2018-10-16T11:24:11.098Z,16.57
2018-10-16T11:26:38.484Z,15.73
2018-10-16T11:29:06.478Z,15.27
2018-10-16T11:31:33.891Z,14.63
2018-10-16T11:34:01.383Z,15.90
2018-10-16T11:36:28.870Z,15.67
2018-10-16T11:38:56.425Z,14.83
2018-10-16T11:41:23.868Z,15.50
2018-10-16T11:43:51.351Z,14.80
2018-10-16T11:46:18.951Z,14.33
2018-10-16T11:48:46.467Z,14.80
2018-10-16T11:51:13.974Z,14.90
2018-10-16T11:53:41.468Z,14.17
2018-10-16T11:56:08.938Z,15.20
2018-10-16T11:58:36.355Z,14.67
2018-10-16T12:01:03.828Z,14.53
2018-10-16T12:03:31.312Z,15.03
2018-10-16T12:05:58.913Z,13.60
2018-10-16T12:08:26.323Z,13.47
2018-10-16T12:10:53.829Z,13.03
2018-10-16T12:13:21.403Z,13.27
2018-10-16T12:15:48.754Z,14.47
2018-10-16T12:18:26.033Z,14.60
2018-10-16T12:21:00.740Z,12.90
2018-10-16T12:23:28.159Z,12.70
2018-10-16T12:25:55.642Z,13.70
2018-10-16T12:28:23.138Z,13.17
2018-10-16T12:30:50.674Z,14.60
2018-10-16T12:33:18.152Z,12.57
2018-10-16T12:35:45.633Z,13.60
2018-10-16T12:38:13.003Z,12.47
2018-10-16T12:40:40.502Z,14.10
2018-10-16T12:43:07.927Z,14.17
2018-10-16T12:45:35.332Z,13.80
2018-10-16T12:48:02.754Z,15.13
2018-10-16T12:50:30.332Z,15.53
2018-10-16T12:52:57.715Z,15.10
2018-10-16T12:55:25.072Z,15.10
2018-10-16T12:57:52.549Z,15.37
2018-10-16T13:00:20.021Z,16.57
2018-10-16T13:02:47.429Z,15.37
2018-10-16T13:05:14.990Z,15.83
2018-10-16T13:07:42.361Z,16.47
2018-10-16T13:10:12.166Z,17.47
2018-10-16T13:12:40.043Z,16.10
2018-10-16T13:15:08.883Z,16.80
2018-10-16T13:17:36.396Z,15.70
2018-10-16T13:20:04.336Z,15.00
2018-10-16T13:22:31.791Z,15.30
2018-10-16T13:24:59.262Z,15.90
2018-10-16T13:27:26.749Z,16.97
2018-10-16T13:29:54.229Z,16.73
2018-10-16T13:32:21.633Z,14.97
2018-10-16T13:34:49.105Z,15.90
2018-10-16T13:37:16.515Z,17.47
2018-10-16T13:39:44.219Z,15.57
2018-10-16T13:42:11.637Z,15.70
2018-10-16T13:44:39.118Z,16.00
2018-10-16T13:47:06.589Z,13.93
2018-10-16T13:49:33.990Z,14.70
2018-10-16T13:52:01.453Z,13.93
2018-10-16T13:54:28.884Z,15.87
2018-10-16T13:56:56.312Z,16.90
2018-10-16T13:59:23.712Z,15.77
2018-10-16T14:01:51.203Z,15.27
2018-10-16T14:04:18.625Z,15.63
2018-10-16T14:06:46.046Z,15.13
2018-10-16T14:09:13.392Z,15.87
2018-10-16T14:11:40.811Z,16.10
2018-10-16T14:14:08.299Z,13.80
2018-10-16T14:16:35.850Z,15.70
2018-10-16T14:19:03.266Z,14.03
2018-10-16T14:21:30.776Z,14.60
2018-10-16T14:23:58.142Z,14.53
2018-10-16T14:26:25.622Z,16.77
2018-10-16T14:28:53.125Z,14.43
2018-10-16T14:31:20.536Z,15.10
2018-10-16T14:33:48.078Z,14.40
2018-10-16T14:36:15.426Z,14.23
2018-10-16T14:38:42.891Z,13.50
2018-10-16T14:41:10.412Z,13.87
2018-10-16T14:43:37.869Z,14.67
2018-10-16T14:46:05.547Z,13.67
2018-10-16T14:48:32.974Z,15.70
2018-10-16T14:51:00.327Z,15.40
2018-10-16T14:53:27.757Z,15.30
2018-10-16T14:55:55.171Z,13.43
2018-10-16T14:58:22.644Z,14.57
2018-10-16T15:00:50.019Z,13.70
2018-10-16T15:03:17.488Z,12.43
2018-10-16T15:05:44.941Z,12.70
2018-10-16T15:08:12.483Z,13.43
2018-10-16T15:10:39.875Z,12.03
2018-10-16T15:13:07.312Z,12.13
2018-10-16T15:15:34.931Z,12.97
2018-10-16T15:18:02.394Z,12.00
2018-10-16T15:20:29.743Z,12.97
2018-10-16T15:22:57.178Z,13.30
2018-10-16T15:25:24.636Z,12.30
2018-10-16T15:27:52.038Z,12.37
2018-10-16T15:30:19.557Z,13.57
2018-10-16T15:32:46.983Z,12.27
2018-10-16T15:35:14.404Z,12.37
2018-10-16T15:37:41.870Z,12.30
2018-10-16T15:40:10.465Z,12.37
2018-10-16T15:42:37.828Z,11.33
2018-10-16T15:45:06.974Z,11.40
2018-10-16T15:47:34.363Z,11.00
2018-10-16T15:50:01.924Z,11.60
2018-10-16T15:52:29.350Z,12.33
2018-10-16T15:54:56.917Z,12.10
2018-10-16T15:57:24.396Z,11.60
2018-10-16T15:59:51.900Z,12.20
2018-10-16T16:02:19.341Z,11.63
2018-10-16T16:04:46.763Z,11.90
2018-10-16T16:07:14.225Z,11.63
2018-10-16T16:09:41.657Z,10.50
2018-10-16T16:12:09.078Z,11.20
2018-10-16T16:14:36.492Z,10.87
2018-10-16T16:17:03.963Z,11.93
2018-10-16T16:19:31.382Z,11.70
2018-10-16T16:21:58.903Z,11.63
2018-10-16T16:24:26.380Z,11.07
2018-10-16T16:26:53.790Z,12.33
2018-10-16T16:29:21.307Z,12.60
2018-10-16T16:31:48.855Z,13.30
2018-10-16T16:34:16.222Z,12.90
2018-10-16T16:36:43.634Z,13.40
2018-10-16T16:39:12.566Z,16.67
2018-10-16T16:41:40.178Z,17.80
2018-10-16T16:44:07.712Z,23.00
2018-10-16T16:46:35.094Z,26.17
2018-10-16T16:49:02.597Z,26.47
2018-10-16T16:51:30.061Z,27.57
2018-10-16T16:53:57.562Z,22.03
2018-10-16T16:56:24.963Z,21.37
2018-10-16T16:58:52.369Z,23.13
2018-10-16T17:01:19.823Z,24.93
2018-10-16T17:03:47.268Z,25.43
2018-10-16T17:06:14.700Z,25.30
2018-10-16T17:08:42.180Z,24.63
2018-10-16T17:11:09.631Z,24.47
2018-10-16T17:13:37.132Z,26.90
2018-10-16T17:16:04.614Z,29.67
2018-10-16T17:18:32.017Z,30.97
2018-10-16T17:20:59.396Z,24.30
2018-10-16T17:23:26.790Z,20.03
2018-10-16T17:25:54.580Z,20.17
2018-10-16T17:28:21.775Z,19.93
2018-10-16T17:30:49.267Z,18.23
2018-10-16T17:33:16.766Z,17.50
2018-10-16T17:35:44.191Z,16.60
2018-10-16T17:38:11.724Z,14.93
2018-10-16T17:40:39.194Z,16.27
2018-10-16T17:43:06.594Z,18.97
2018-10-16T17:45:34.041Z,18.60
2018-10-16T17:48:01.519Z,22.83
2018-10-16T17:50:28.888Z,22.07
2018-10-16T17:52:56.279Z,22.30
2018-10-16T17:55:23.682Z,21.63
2018-10-16T17:57:51.179Z,19.93
2018-10-16T18:00:19.320Z,18.90
2018-10-16T18:02:46.822Z,17.80
2018-10-16T18:05:14.553Z,17.57
2018-10-16T18:07:42.560Z,16.00
2018-10-16T18:10:10.170Z,15.73
2018-10-16T18:12:37.832Z,16.43
2018-10-16T18:15:06.814Z,16.60
2018-10-16T18:17:34.271Z,15.73
2018-10-16T18:20:01.692Z,17.00
2018-10-16T18:22:29.112Z,18.03
2018-10-16T18:24:56.551Z,17.07
2018-10-16T18:27:24.042Z,16.57
2018-10-16T18:29:51.704Z,15.90
2018-10-16T18:32:19.092Z,17.73
2018-10-16T18:34:46.486Z,17.10
2018-10-16T18:37:13.933Z,16.10
2018-10-16T18:39:41.576Z,16.83
2018-10-16T18:42:08.879Z,16.67
2018-10-16T18:44:36.286Z,19.93
2018-10-16T18:47:03.818Z,26.13
2018-10-16T18:49:31.278Z,26.67
2018-10-16T18:51:58.728Z,23.70
2018-10-16T18:54:26.317Z,17.43
2018-10-16T18:56:53.694Z,16.30
2018-10-16T18:59:21.152Z,17.07
2018-10-16T19:01:48.636Z,15.17
2018-10-16T19:04:16.005Z,14.50
2018-10-16T19:06:43.429Z,16.37
2018-10-16T19:09:12.263Z,13.73
2018-10-16T19:11:40.093Z,14.73
2018-10-16T19:14:07.521Z,14.23
2018-10-16T19:16:35.791Z,13.90
2018-10-16T19:19:03.216Z,14.00
2018-10-16T19:21:30.853Z,14.90
2018-10-16T19:23:58.245Z,19.80
2018-10-16T19:26:25.734Z,19.83
2018-10-16T19:28:53.204Z,20.57
2018-10-16T19:31:20.563Z,22.20
2018-10-16T19:33:47.955Z,23.10
2018-10-16T19:36:15.358Z,23.57
2018-10-16T19:38:42.745Z,21.40
2018-10-16T19:41:10.150Z,22.20
2018-10-16T19:43:37.575Z,20.60
2018-10-16T19:46:05.095Z,20.87
2018-10-16T19:48:32.504Z,21.67
2018-10-16T19:51:00.016Z,23.00
2018-10-16T19:53:27.460Z,21.53
2018-10-16T19:55:54.799Z,18.13
2018-10-16T19:58:22.305Z,16.43
2018-10-16T20:00:49.658Z,15.53
2018-10-16T20:03:17.056Z,14.50
2018-10-16T20:05:44.387Z,14.27
2018-10-16T20:08:11.849Z,14.43
2018-10-16T20:10:39.358Z,15.70
2018-10-16T20:13:06.857Z,15.17
2018-10-16T20:15:34.347Z,15.03
2018-10-16T20:18:01.669Z,13.80
2018-10-16T20:20:29.247Z,13.53
2018-10-16T20:22:56.607Z,13.83
2018-10-16T20:25:24.211Z,13.50
2018-10-16T20:27:51.598Z,14.27
2018-10-16T20:30:18.960Z,15.83
2018-10-16T20:32:46.417Z,16.30
2018-10-16T20:35:13.913Z,16.93
2018-10-16T20:37:41.381Z,15.73
2018-10-16T20:40:09.029Z,15.33
2018-10-16T20:42:37.141Z,15.50
2018-10-16T20:45:04.645Z,17.30
2018-10-16T20:47:32.110Z,17.23
2018-10-16T20:49:59.490Z,14.20
2018-10-16T20:52:26.935Z,15.63
2018-10-16T20:54:54.338Z,15.40
2018-10-16T20:57:21.773Z,17.27
2018-10-16T20:59:49.375Z,18.23
2018-10-16T21:02:17.176Z,17.77
2018-10-16T21:04:44.649Z,18.17
2018-10-16T21:07:12.051Z,18.10
2018-10-16T21:09:39.468Z,18.20
2018-10-16T21:12:06.875Z,18.23
2018-10-16T21:14:34.248Z,16.27
2018-10-16T21:17:01.675Z,18.10
2018-10-16T21:19:29.159Z,14.90
2018-10-16T21:21:56.580Z,14.50
2018-10-16T21:24:24.177Z,12.40
2018-10-16T21:27:07.403Z,13.23
2018-10-16T21:29:35.030Z,13.57
2018-10-16T21:32:02.544Z,13.43
2018-10-16T21:34:30.077Z,13.00
2018-10-16T21:36:57.650Z,13.23
2018-10-16T21:39:25.083Z,12.67
2018-10-16T21:41:52.551Z,13.47
2018-10-16T21:44:20.612Z,12.63
2018-10-16T21:46:48.193Z,12.80
2018-10-16T21:49:15.644Z,12.70
2018-10-16T21:51:43.314Z,13.53
2018-10-16T21:54:10.944Z,13.70
2018-10-16T21:56:38.806Z,14.90
2018-10-16T21:59:06.303Z,15.70
2018-10-16T22:01:39.342Z,14.10
2018-10-16T22:04:06.750Z,15.40
2018-10-16T22:06:37.000Z,15.10
2018-10-16T22:09:10.969Z,15.30
2018-10-16T22:11:40.526Z,14.60
2018-10-16T22:14:08.853Z,15.93
2018-10-16T22:16:36.322Z,16.80
2018-10-16T22:19:04.083Z,16.30
2018-10-16T22:21:31.576Z,15.00
2018-10-16T22:23:59.140Z,15.77
2018-10-16T22:26:26.556Z,14.67
2018-10-16T22:28:54.124Z,13.37
2018-10-16T22:31:21.611Z,13.80
2018-10-16T22:33:49.044Z,14.40
2018-10-16T22:36:16.528Z,14.60
2018-10-16T22:38:43.957Z,14.30
2018-10-16T22:41:11.479Z,14.17
2018-10-16T22:43:38.815Z,14.20
2018-10-16T22:46:06.346Z,14.63
2018-10-16T22:48:33.912Z,14.67
2018-10-16T22:51:01.533Z,15.40
2018-10-16T22:53:29.606Z,13.90
2018-10-16T22:55:57.001Z,15.13
2018-10-16T22:58:24.437Z,13.87
2018-10-16T23:00:51.931Z,13.30
2018-10-16T23:03:19.364Z,13.03
2018-10-16T23:05:46.773Z,14.00
2018-10-16T23:08:14.204Z,13.10
2018-10-16T23:10:41.721Z,11.90
2018-10-16T23:13:09.267Z,11.60
2018-10-16T23:15:36.632Z,12.17
2018-10-16T23:18:04.682Z,12.40
2018-10-16T23:20:32.677Z,12.87
2018-10-16T23:23:00.128Z,12.73
2018-10-16T23:25:27.441Z,14.00
2018-10-16T23:27:54.802Z,12.00
2018-10-16T23:30:22.277Z,13.60
2018-10-16T23:32:49.692Z,15.10
2018-10-16T23:35:17.158Z,14.63
2018-10-16T23:37:44.589Z,14.90
2018-10-16T23:40:12.032Z,15.00
2018-10-16T23:42:39.767Z,15.03
2018-10-16T23:45:07.195Z,14.20
2018-10-16T23:47:34.589Z,13.57
2018-10-16T23:50:02.058Z,13.83
2018-10-16T23:52:29.399Z,13.77
2018-10-16T23:54:56.862Z,12.37
2018-10-16T23:57:24.313Z,13.17
2018-10-16T23:59:51.853Z,14.50
